Disclaimer

Please do not use the information listed here in-flight or in-navigation, as they are not provided to us by the airports but are provided by volunteers, so they might be outdated.

Search


Regions


Airport information page

Radio informations:
Tower (TWR) - 118.8 MHz
TERESINA ATIS - 127.8 MHz
TERESINA APP - 119.6 MHz

Airport informations:
Latitude: 05° 03' 35.79" S
Longitude: 042° 49' 24.52" W
Elevation: 219 feet - 67 meters
Operating hours: 24 hour operations
Operating agency: Civil government, landing fees and diplomatic clearance may be required
Timezone: UTC-3(-2DT)
Fuel: Jet A1, without icing nhibitor.

100/130 octane gasoline, leaded, MIL-L-5572F (GREEN)

Runway information:
02/20 - 7218 x 148 feet< - >2200 x 45 meters

Recent METARs:
SBTE 211600Z 14009KT CAVOK 37/17 Q1009
SBTE 211700Z 18007KT CAVOK 38/16 Q1007
SBTE 211700Z 18007KT CAVOK 38/16 Q1007

Airport on the map: